createdAt,value
2022-08-07T00:00:42.507Z,50
2022-08-07T00:02:36.164Z,50.2
2022-08-07T00:02:44.540Z,50.3
2022-08-07T00:03:47.411Z,49.3
2022-08-07T00:04:42.590Z,49.9
2022-08-07T00:05:42.505Z,49.7
2022-08-07T00:06:51.732Z,50
2022-08-07T00:07:42.506Z,50.1
2022-08-07T00:08:44.377Z,49.8
2022-08-07T00:09:50.182Z,49.2
2022-08-07T00:10:47.620Z,49.5
2022-08-07T00:11:48.094Z,49.3
2022-08-07T00:12:57.614Z,49.4
2022-08-07T00:13:44.806Z,49.3
2022-08-07T00:14:44.188Z,50
2022-08-07T00:15:46.309Z,50.1
2022-08-07T00:16:42.495Z,50
2022-08-07T00:17:42.511Z,50.1
2022-08-07T00:18:42.505Z,49.9
2022-08-07T00:20:01.491Z,50.2
2022-08-07T00:20:42.509Z,50.2
2022-08-07T00:21:56.041Z,50.3
2022-08-07T00:22:42.505Z,50.5
2022-08-07T00:23:42.518Z,50.1
2022-08-07T00:24:42.516Z,49.9
2022-08-07T00:25:42.511Z,50.2
2022-08-07T00:26:59.358Z,50.4
2022-08-07T00:27:52.580Z,50.4
2022-08-07T00:28:46.170Z,50.2
2022-08-07T00:29:42.522Z,50.3
2022-08-07T00:30:42.500Z,49.8
2022-08-07T00:31:42.709Z,49.6
2022-08-07T00:32:42.519Z,49.1
2022-08-07T00:33:42.515Z,49.5
2022-08-07T00:34:42.507Z,49.2
2022-08-07T00:35:46.502Z,49
2022-08-07T00:36:43.018Z,50
2022-08-07T00:37:48.366Z,49.5
2022-08-07T00:38:42.531Z,49.6
2022-08-07T00:39:45.196Z,49.7
2022-08-07T00:40:42.506Z,49.8
2022-08-07T00:41:45.318Z,49.8
2022-08-07T00:42:42.505Z,50.1
2022-08-07T00:43:59.195Z,49.8
2022-08-07T00:44:42.502Z,50.6
2022-08-07T00:45:42.542Z,49.6
2022-08-07T00:46:42.528Z,48.9
2022-08-07T00:48:09.912Z,48.5
2022-08-07T00:48:42.645Z,49.3
2022-08-07T00:50:20.194Z,49.7
2022-08-07T00:50:50.269Z,50.1
2022-08-07T00:51:56.803Z,50
2022-08-07T00:52:42.509Z,50.3
2022-08-07T00:53:50.113Z,50.5
2022-08-07T00:54:42.517Z,51.1
2022-08-07T00:56:00.431Z,50.3
2022-08-07T00:56:42.525Z,50.7
2022-08-07T00:57:44.518Z,50.7
2022-08-07T00:58:42.527Z,50.8
2022-08-07T00:59:42.507Z,51
2022-08-07T01:00:53.929Z,51.2
2022-08-07T01:01:44.505Z,51.5
2022-08-07T01:02:42.595Z,51.8
2022-08-07T01:03:56.150Z,51.9
2022-08-07T01:04:43.499Z,51.7
2022-08-07T01:05:42.517Z,51.7
2022-08-07T01:06:42.598Z,51.6
2022-08-07T01:07:42.500Z,51.8
2022-08-07T01:08:51.278Z,51.4
2022-08-07T01:10:04.433Z,51.5
2022-08-07T01:10:47.680Z,51.5
2022-08-07T01:12:53.328Z,51.5
2022-08-07T01:13:56.053Z,51.8
2022-08-07T01:14:57.165Z,52
2022-08-07T01:16:04.948Z,52
2022-08-07T01:16:52.811Z,52.4
2022-08-07T01:17:42.557Z,52.2
2022-08-07T01:18:42.515Z,52.2
2022-08-07T01:19:44.380Z,52.2
2022-08-07T01:20:43.070Z,52.5
2022-08-07T01:21:42.509Z,52.7
2022-08-07T01:22:54.027Z,52.5
2022-08-07T01:23:45.007Z,52.4
2022-08-07T01:24:42.526Z,52.4
2022-08-07T01:25:55.400Z,52.5
2022-08-07T01:26:42.523Z,52.9
2022-08-07T01:27:51.499Z,52.9
2022-08-07T01:28:46.370Z,52.8
2022-08-07T01:29:42.552Z,52.7
2022-08-07T01:30:42.504Z,52.5
2022-08-07T01:31:48.196Z,52.2
2022-08-07T01:32:42.509Z,52.2
2022-08-07T01:33:53.509Z,52.7
2022-08-07T01:34:42.521Z,52.5
2022-08-07T01:35:54.366Z,52.4
2022-08-07T01:36:44.113Z,52.5
2022-08-07T01:37:42.534Z,52.8
2022-08-07T01:38:42.530Z,53.2
2022-08-07T01:39:46.976Z,53.3
2022-08-07T01:40:42.506Z,53.5
2022-08-07T01:42:07.493Z,54
2022-08-07T01:42:57.272Z,54
2022-08-07T01:43:42.533Z,53.8
2022-08-07T01:44:42.533Z,53.9
2022-08-07T01:45:42.540Z,54.1
2022-08-07T01:46:42.605Z,54.3
2022-08-07T01:48:17.626Z,54.1
2022-08-07T01:48:46.748Z,54.1
2022-08-07T01:49:42.527Z,54.1
2022-08-07T01:50:43.189Z,54.3
2022-08-07T01:52:01.939Z,54.6
2022-08-07T01:52:49.794Z,54.2
2022-08-07T01:54:08.759Z,54.5
2022-08-07T01:54:42.530Z,53.8
2022-08-07T01:55:42.525Z,54
2022-08-07T01:56:42.526Z,53.9
2022-08-07T01:58:01.325Z,53.8
2022-08-07T01:58:45.229Z,53.7
2022-08-07T01:59:43.795Z,53.6
2022-08-07T02:00:49.018Z,53.7
2022-08-07T02:01:59.922Z,53.9
2022-08-07T02:03:19.107Z,53.9
2022-08-07T02:03:48.708Z,53.8
2022-08-07T02:04:56.286Z,54.1
2022-08-07T02:05:47.613Z,53.9
2022-08-07T02:06:42.533Z,54.1
2022-08-07T02:07:50.134Z,53.8
2022-08-07T02:08:42.587Z,53.6
2022-08-07T02:09:52.721Z,53.9
2022-08-07T02:10:42.533Z,53.7
2022-08-07T02:12:05.047Z,53.8
2022-08-07T02:12:42.542Z,54.4
2022-08-07T02:13:57.438Z,54.2
2022-08-07T02:14:42.529Z,54
2022-08-07T02:15:42.551Z,54.1
2022-08-07T02:16:42.528Z,54.4
2022-08-07T02:17:42.526Z,54.2
2022-08-07T02:18:47.299Z,53.9
2022-08-07T02:20:03.990Z,54.1
2022-08-07T02:20:42.524Z,53.6
2022-08-07T02:21:55.858Z,53.7
2022-08-07T02:22:43.822Z,54
2022-08-07T02:23:43.205Z,53.8
2022-08-07T02:24:44.619Z,53.6
2022-08-07T02:26:26.679Z,53.4
2022-08-07T02:26:42.540Z,53.2
2022-08-07T02:27:42.528Z,53.3
2022-08-07T02:28:42.538Z,53.7
2022-08-07T02:30:42.529Z,54.1
2022-08-07T02:31:42.526Z,54
2022-08-07T02:33:00.752Z,53.9
2022-08-07T02:34:03.241Z,53.8
2022-08-07T02:34:48.831Z,54.1
2022-08-07T02:36:30.727Z,54.2
2022-08-07T02:36:42.534Z,54.5
2022-08-07T02:37:43.868Z,54.3
2022-08-07T02:38:50.795Z,54.4
2022-08-07T02:40:02.420Z,54.1
2022-08-07T02:40:42.579Z,54.4
2022-08-07T02:41:50.579Z,54
2022-08-07T02:42:42.522Z,54.7
2022-08-07T02:43:42.530Z,54.9
2022-08-07T02:44:47.904Z,55.1
2022-08-07T02:46:00.876Z,55.2
2022-08-07T02:46:46.707Z,55
2022-08-07T02:47:45.548Z,55.4
2022-08-07T02:48:47.182Z,55.8
2022-08-07T02:49:58.722Z,55.6
2022-08-07T02:50:42.536Z,55.5
2022-08-07T02:51:51.905Z,55.4
2022-08-07T02:52:44.078Z,55.8
2022-08-07T02:53:42.518Z,56
2022-08-07T02:54:42.533Z,55.7
2022-08-07T02:56:03.251Z,55.9
2022-08-07T02:56:42.558Z,56.2
2022-08-07T02:57:42.529Z,55.9
2022-08-07T02:58:47.385Z,55.7
2022-08-07T02:59:42.521Z,55.4
2022-08-07T03:00:46.990Z,55.9
2022-08-07T03:01:42.676Z,55.9
2022-08-07T03:02:55.056Z,56.2
2022-08-07T03:03:49.695Z,55.8
2022-08-07T03:04:42.540Z,55.8
2022-08-07T03:05:42.530Z,55.8
2022-08-07T03:06:44.614Z,55.6
2022-08-07T03:08:04.565Z,55.2
2022-08-07T03:08:42.540Z,55.1
2022-08-07T03:09:44.644Z,55
2022-08-07T03:10:46.437Z,55
2022-08-07T03:11:52.605Z,55.3
2022-08-07T03:12:42.541Z,55.1
2022-08-07T03:13:49.788Z,55
2022-08-07T03:14:42.528Z,54.8
2022-08-07T03:15:56.792Z,54.7
2022-08-07T03:16:42.540Z,54.9
2022-08-07T03:17:54.045Z,55
2022-08-07T03:18:44.158Z,54.9
2022-08-07T03:19:42.545Z,54.3
2022-08-07T03:20:42.538Z,54.5
2022-08-07T03:21:45.608Z,54.7
2022-08-07T03:22:42.530Z,54.7
2022-08-07T03:24:17.850Z,54.3
2022-08-07T03:24:42.549Z,54.4
2022-08-07T03:25:42.545Z,54.7
2022-08-07T03:26:51.090Z,55.3
2022-08-07T03:27:59.025Z,55.1
2022-08-07T03:28:42.861Z,54.4
2022-08-07T03:29:46.071Z,54.2
2022-08-07T03:30:42.537Z,54.8
2022-08-07T03:31:46.557Z,55.1
2022-08-07T03:32:49.011Z,54.9
2022-08-07T03:33:42.536Z,54.9
2022-08-07T03:34:47.584Z,55.3
2022-08-07T03:35:44.214Z,54.9
2022-08-07T03:36:42.528Z,54.6
2022-08-07T03:37:46.531Z,54.6
2022-08-07T03:38:42.534Z,54.5
2022-08-07T03:39:59.039Z,53.7
2022-08-07T03:40:44.363Z,53.7
2022-08-07T03:41:47.455Z,53.9
2022-08-07T03:42:42.535Z,54
2022-08-07T03:43:56.758Z,54.3
2022-08-07T03:44:42.575Z,54.6
2022-08-07T03:45:43.697Z,55.1
2022-08-07T03:47:13.078Z,55.4
2022-08-07T03:47:45.312Z,55.6
2022-08-07T03:48:45.479Z,55.9
2022-08-07T03:49:42.552Z,55.7
2022-08-07T03:50:43.267Z,56
2022-08-07T03:51:47.154Z,56.6
2022-08-07T03:54:01.952Z,56.4
2022-08-07T03:54:54.285Z,56
2022-08-07T03:55:57.371Z,56.1
2022-08-07T03:56:42.544Z,56
2022-08-07T03:58:34.773Z,55.9
2022-08-07T03:59:07.864Z,55.9
2022-08-07T03:59:46.547Z,56.3
2022-08-07T04:00:46.168Z,56.5
2022-08-07T04:01:43.296Z,56.8
2022-08-07T04:02:42.542Z,57
2022-08-07T04:03:53.398Z,57.2
2022-08-07T04:04:42.596Z,57.2
2022-08-07T04:05:42.653Z,56.9
2022-08-07T04:06:42.573Z,56.9
2022-08-07T04:07:45.179Z,57
2022-08-07T04:08:42.547Z,57.2
2022-08-07T04:09:45.057Z,57.1
2022-08-07T04:10:42.615Z,57
2022-08-07T04:12:26.748Z,57.4
2022-08-07T04:12:42.559Z,57.9
2022-08-07T04:14:10.327Z,57.7
2022-08-07T04:14:43.856Z,57.3
2022-08-07T04:15:42.551Z,56.8
2022-08-07T04:16:43.106Z,57.6
2022-08-07T04:18:31.022Z,57.1
2022-08-07T04:18:59.028Z,56.9
2022-08-07T04:19:51.859Z,57.2
2022-08-07T04:20:43.097Z,57.2
2022-08-07T04:21:48.088Z,57.7
2022-08-07T04:22:53.411Z,57.6
2022-08-07T04:24:01.954Z,57.3
2022-08-07T04:24:42.545Z,57
2022-08-07T04:25:42.531Z,57.3
2022-08-07T04:26:43.597Z,57
2022-08-07T04:27:44.169Z,57.1
2022-08-07T04:28:42.540Z,57.4
2022-08-07T04:29:58.312Z,57.5
2022-08-07T04:30:55.189Z,57.3
2022-08-07T04:32:03.353Z,56.8
2022-08-07T04:32:44.774Z,56.8
2022-08-07T04:33:42.551Z,56.9
2022-08-07T04:34:42.542Z,56.6
2022-08-07T04:35:42.555Z,56.5
2022-08-07T04:36:42.562Z,56.4
2022-08-07T04:38:03.939Z,56.4
2022-08-07T04:38:42.552Z,56.3
2022-08-07T04:39:47.935Z,56.3
2022-08-07T04:40:51.198Z,56.2
2022-08-07T04:41:42.548Z,56.2
2022-08-07T04:42:42.574Z,56.4
2022-08-07T04:44:12.906Z,56.9
2022-08-07T04:44:54.480Z,57.1
2022-08-07T04:45:58.057Z,56.9
2022-08-07T04:47:04.202Z,57
2022-08-07T04:48:01.788Z,57
2022-08-07T04:48:44.770Z,56.9
2022-08-07T04:49:42.555Z,57.4
2022-08-07T04:50:42.556Z,57.3
2022-08-07T04:51:42.564Z,57.3
2022-08-07T04:52:51.325Z,56.8
2022-08-07T04:54:05.703Z,57
2022-08-07T04:54:42.557Z,56.9
2022-08-07T04:58:10.695Z,56.4
2022-08-07T04:58:11.334Z,56.5
2022-08-07T04:58:11.441Z,56.7
2022-08-07T05:00:12.396Z,56.2
2022-08-07T05:00:42.610Z,55.5
2022-08-07T05:01:42.564Z,55.2
2022-08-07T05:02:43.733Z,54.9
2022-08-07T05:04:07.037Z,54.6
2022-08-07T05:04:43.896Z,54.7
2022-08-07T05:05:52.765Z,54.5
2022-08-07T05:06:43.625Z,54.1
2022-08-07T05:07:48.236Z,53.9
2022-08-07T05:08:59.939Z,53.6
2022-08-07T05:09:45.430Z,53.6
2022-08-07T05:10:42.554Z,53.5
2022-08-07T05:11:56.800Z,54
2022-08-07T05:12:46.148Z,53.8
2022-08-07T05:14:52.900Z,53.8
2022-08-07T05:14:53.824Z,53.8
2022-08-07T05:15:42.555Z,53.6
2022-08-07T05:16:45.267Z,53.4
2022-08-07T05:17:51.493Z,53.3
2022-08-07T05:18:42.551Z,53.3
2022-08-07T05:19:44.692Z,53.2
2022-08-07T05:20:42.764Z,53
2022-08-07T05:21:59.563Z,52.8
2022-08-07T05:22:42.565Z,52.7
2022-08-07T05:23:42.585Z,52.5
2022-08-07T05:24:42.563Z,52
2022-08-07T05:26:13.607Z,52.1
2022-08-07T05:26:42.563Z,51.8
2022-08-07T05:28:03.251Z,51.7
2022-08-07T05:28:46.649Z,51.4
2022-08-07T05:29:51.341Z,51.3
2022-08-07T05:30:42.552Z,51.5
2022-08-07T05:31:51.083Z,51.2
2022-08-07T05:32:42.547Z,50.9
2022-08-07T05:33:42.574Z,50.9
2022-08-07T05:34:42.570Z,50.9
2022-08-07T05:35:42.637Z,51.1
2022-08-07T05:36:42.570Z,51.1
2022-08-07T05:37:42.556Z,51.4
2022-08-07T05:39:01.140Z,51.4
2022-08-07T05:40:06.853Z,51.5
2022-08-07T05:40:51.348Z,50.9
2022-08-07T05:42:01.634Z,50.8
2022-08-07T05:42:42.568Z,50.9
2022-08-07T05:44:01.211Z,51.1
2022-08-07T05:44:52.951Z,50.8
2022-08-07T05:45:46.744Z,50.8
2022-08-07T05:46:42.882Z,51
2022-08-07T05:48:02.475Z,51.1
2022-08-07T05:48:58.444Z,51
2022-08-07T05:49:42.551Z,50.8
2022-08-07T05:50:43.249Z,50.8
2022-08-07T05:51:42.575Z,50.7
2022-08-07T05:52:42.580Z,50.8
2022-08-07T05:54:09.680Z,51.2
2022-08-07T05:54:44.572Z,50.8
2022-08-07T05:56:03.120Z,50.7
2022-08-07T05:56:42.568Z,50.7
2022-08-07T05:57:42.677Z,50.7
2022-08-07T05:58:52.405Z,50.7
2022-08-07T05:59:56.233Z,50.2
2022-08-07T06:00:42.549Z,50.2
2022-08-07T06:01:42.597Z,50.2
2022-08-07T06:02:42.602Z,50.3
2022-08-07T06:03:53.195Z,50.3
2022-08-07T06:04:42.660Z,50.2
2022-08-07T06:05:42.568Z,50.4
2022-08-07T06:06:46.146Z,50.5
2022-08-07T06:08:13.790Z,50.5
2022-08-07T06:08:42.766Z,50.4
2022-08-07T06:09:45.098Z,50.2
2022-08-07T06:10:42.635Z,50
2022-08-07T06:11:42.566Z,49.5
2022-08-07T06:12:42.645Z,49.3
2022-08-07T06:14:12.115Z,49.3
2022-08-07T06:14:42.598Z,49
2022-08-07T06:15:42.939Z,48.7
2022-08-07T06:16:42.576Z,48.5
2022-08-07T06:17:42.585Z,48.9
2022-08-07T06:18:42.993Z,48.7
2022-08-07T06:19:51.858Z,48.6
2022-08-07T06:20:49.904Z,48.6
2022-08-07T06:22:14.759Z,48.9
2022-08-07T06:23:01.795Z,48.8
2022-08-07T06:24:37.199Z,49
2022-08-07T06:24:52.772Z,49.2
2022-08-07T06:25:54.859Z,49
2022-08-07T06:26:42.567Z,49.2
2022-08-07T06:27:44.106Z,49.3
2022-08-07T06:28:42.588Z,49.4
2022-08-07T06:29:42.567Z,49.4
2022-08-07T06:30:45.825Z,49.4
2022-08-07T06:31:49.597Z,49.5
2022-08-07T06:32:42.570Z,49.1
2022-08-07T06:33:42.575Z,48.8
2022-08-07T06:34:45.292Z,48.7
2022-08-07T06:35:48.038Z,48.2
2022-08-07T06:36:42.561Z,48.3
2022-08-07T06:37:43.834Z,48.4
2022-08-07T06:38:58.374Z,47.6
2022-08-07T06:40:16.904Z,47.7
2022-08-07T06:40:46.033Z,47.7
2022-08-07T06:42:01.116Z,47.7
2022-08-07T06:42:42.587Z,47.6
2022-08-07T06:43:46.613Z,47.8
2022-08-07T06:44:42.578Z,47.6
2022-08-07T06:45:44.318Z,47.3
2022-08-07T06:46:42.558Z,47.2
2022-08-07T06:47:57.551Z,47.3
2022-08-07T06:48:44.716Z,47.4
2022-08-07T06:49:50.922Z,47
2022-08-07T06:50:43.315Z,46.9
2022-08-07T06:51:49.644Z,46.8
2022-08-07T06:52:42.579Z,46.9
2022-08-07T06:55:29.693Z,47.1
2022-08-07T06:55:32.352Z,46.6
2022-08-07T06:55:53.628Z,46.5
2022-08-07T06:56:48.825Z,46
2022-08-07T06:57:47.761Z,45.3
2022-08-07T07:00:11.911Z,45.5
2022-08-07T07:00:14.658Z,45.3
2022-08-07T07:00:42.663Z,45.3
2022-08-07T07:01:48.743Z,44.7
2022-08-07T07:02:54.313Z,44.8
2022-08-07T07:03:48.187Z,44.6
2022-08-07T07:04:43.574Z,45
2022-08-07T07:06:03.808Z,44.9
2022-08-07T07:07:00.228Z,44.9
2022-08-07T07:08:00.169Z,45
2022-08-07T07:08:46.613Z,44.7
2022-08-07T07:09:42.631Z,45.3
2022-08-07T07:10:54.730Z,45.6
2022-08-07T07:12:08.337Z,45.3
2022-08-07T07:12:48.861Z,44.7
2022-08-07T07:13:58.580Z,43.8
2022-08-07T07:14:42.575Z,44.6
2022-08-07T07:15:43.145Z,44.3
2022-08-07T07:16:50.002Z,43.8
2022-08-07T07:17:45.290Z,43.5
2022-08-07T07:18:48.146Z,43.1
2022-08-07T07:19:56.618Z,43.9
2022-08-07T07:20:42.583Z,44
2022-08-07T07:22:04.908Z,44.2
2022-08-07T07:22:50.960Z,44.1
2022-08-07T07:24:10.936Z,43.8
2022-08-07T07:24:43.120Z,43.2
2022-08-07T07:26:32.753Z,42.4
2022-08-07T07:26:51.927Z,41.9
2022-08-07T07:27:55.630Z,41.6
2022-08-07T07:29:38.424Z,41.9
2022-08-07T07:30:09.363Z,42.4
2022-08-07T07:30:42.584Z,41.7
2022-08-07T07:31:44.287Z,41.2
2022-08-07T07:32:42.744Z,42.2
2022-08-07T07:33:42.587Z,41.4
2022-08-07T07:34:42.581Z,40.9
2022-08-07T07:35:54.240Z,41
2022-08-07T07:36:42.604Z,41
2022-08-07T07:37:47.323Z,40.8
2022-08-07T07:38:43.425Z,41
2022-08-07T07:39:52.077Z,40.2
2022-08-07T07:40:42.592Z,41.2
2022-08-07T07:41:50.675Z,40.8
2022-08-07T07:42:42.597Z,40.8
2022-08-07T07:44:13.788Z,40.2
2022-08-07T07:44:42.591Z,39.5
2022-08-07T07:46:36.484Z,39.2
2022-08-07T07:46:54.199Z,40.2
2022-08-07T07:47:42.924Z,40.5
2022-08-07T07:48:42.590Z,40.8
2022-08-07T07:50:35.899Z,40.6
2022-08-07T07:50:42.591Z,40.8
2022-08-07T07:51:58.270Z,40.2
2022-08-07T07:52:42.592Z,40.6
2022-08-07T07:53:51.867Z,39.6
2022-08-07T07:54:44.176Z,39.9
2022-08-07T07:55:45.752Z,40.4
2022-08-07T07:56:42.582Z,40.3
2022-08-07T07:57:50.211Z,40.2
2022-08-07T07:58:42.601Z,39.8
2022-08-07T07:59:53.801Z,39.7
2022-08-07T08:00:42.582Z,39.9
2022-08-07T08:02:01.997Z,39.7
2022-08-07T08:03:01.150Z,39.9
2022-08-07T08:04:09.455Z,40
2022-08-07T08:04:42.658Z,40.1
2022-08-07T08:05:50.548Z,40
2022-08-07T08:06:51.997Z,39.5
2022-08-07T08:07:59.948Z,40.1
2022-08-07T08:08:42.704Z,40.1
2022-08-07T08:09:52.386Z,39.8
2022-08-07T08:10:42.590Z,39
2022-08-07T08:12:00.008Z,39.4
2022-08-07T08:12:59.219Z,39.4
2022-08-07T08:13:53.144Z,38.6
2022-08-07T08:14:42.611Z,38.3
2022-08-07T08:15:58.144Z,38.6
2022-08-07T08:16:42.602Z,38.8
2022-08-07T08:17:57.937Z,38.8
2022-08-07T08:18:42.598Z,39.1
2022-08-07T08:20:17.975Z,38.9
2022-08-07T08:20:43.492Z,39.7
2022-08-07T08:21:56.024Z,39.4
2022-08-07T08:22:54.162Z,39.7
2022-08-07T08:23:42.603Z,40.1
2022-08-07T08:24:45.683Z,40
2022-08-07T08:25:49.380Z,39.3
2022-08-07T08:26:42.602Z,39.6
2022-08-07T08:27:56.008Z,39.4
2022-08-07T08:28:44.735Z,39.9
2022-08-07T08:29:54.474Z,39.7
2022-08-07T08:30:51.162Z,39.6
2022-08-07T08:31:58.833Z,39.8
2022-08-07T08:32:42.616Z,40
2022-08-07T08:33:43.887Z,39.9
2022-08-07T08:34:42.672Z,39.3
2022-08-07T08:35:47.103Z,39.9
2022-08-07T08:36:42.600Z,39.7
2022-08-07T08:37:59.735Z,39.8
2022-08-07T08:38:42.606Z,39.7
2022-08-07T08:39:54.927Z,40.1
2022-08-07T08:40:43.899Z,39.7
2022-08-07T08:41:59.182Z,39.5
2022-08-07T08:42:42.609Z,38.6
2022-08-07T08:43:45.138Z,38.6
2022-08-07T08:44:44.654Z,38.9
2022-08-07T08:45:59.519Z,38.7
2022-08-07T08:46:45.023Z,38.8
2022-08-07T08:47:52.744Z,38.7
2022-08-07T08:48:42.624Z,38.8
2022-08-07T08:49:46.816Z,39.1
2022-08-07T08:50:42.614Z,38.8
2022-08-07T08:52:12.759Z,38.4
2022-08-07T08:52:53.606Z,38.4
2022-08-07T08:53:42.610Z,38.1
2022-08-07T08:54:42.610Z,38.4
2022-08-07T08:55:54.630Z,38
2022-08-07T08:56:47.696Z,37.6
2022-08-07T08:57:42.614Z,37.8
2022-08-07T08:58:42.636Z,37.7
2022-08-07T08:59:48.035Z,37
2022-08-07T09:00:42.786Z,36.5
2022-08-07T09:01:46.561Z,36.7
2022-08-07T09:02:42.687Z,36.6
2022-08-07T09:03:47.388Z,37.3
2022-08-07T09:04:42.601Z,37.6
2022-08-07T09:05:42.608Z,36.9
2022-08-07T09:06:42.787Z,36.7
2022-08-07T09:07:46.445Z,36.7
2022-08-07T09:08:42.617Z,36.7
2022-08-07T09:09:42.620Z,36.2
2022-08-07T09:10:44.264Z,36
2022-08-07T09:11:50.383Z,35.9
2022-08-07T09:12:42.601Z,35.4
2022-08-07T09:13:42.617Z,35.5
2022-08-07T09:14:50.552Z,35.2
2022-08-07T09:16:22.881Z,35.1
2022-08-07T09:16:42.641Z,35
2022-08-07T09:18:01.433Z,34.4
2022-08-07T09:18:42.604Z,33.9
2022-08-07T09:19:51.964Z,33.5
2022-08-07T09:20:42.617Z,33.2
2022-08-07T09:22:10.084Z,33.3
2022-08-07T09:24:31.522Z,33.8
2022-08-07T09:24:54.027Z,34.6
2022-08-07T09:24:59.037Z,34.3
2022-08-07T09:25:42.609Z,33.9
2022-08-07T09:26:47.643Z,32.9
2022-08-07T09:28:00.394Z,33.1
2022-08-07T09:30:01.318Z,33.4
2022-08-07T09:30:03.804Z,33.1
2022-08-07T09:30:44.202Z,33.3
2022-08-07T09:31:49.136Z,33.7
2022-08-07T09:32:42.635Z,34.1
2022-08-07T09:33:56.573Z,33.4
2022-08-07T09:34:42.609Z,33.6
2022-08-07T09:36:04.710Z,33.7
2022-08-07T09:36:43.127Z,33.8
2022-08-07T09:37:53.439Z,33.5
2022-08-07T09:38:42.633Z,33.8
2022-08-07T09:39:54.869Z,33.5
2022-08-07T09:40:42.629Z,33.8
2022-08-07T09:41:43.196Z,34.1
2022-08-07T09:42:42.628Z,34.1
2022-08-07T09:44:06.585Z,34.1
2022-08-07T09:45:03.398Z,33.7
2022-08-07T09:47:51.886Z,33.4
2022-08-07T09:47:52.710Z,33.1
2022-08-07T09:47:58.245Z,33.2
2022-08-07T09:48:55.873Z,33.2
2022-08-07T09:50:02.527Z,33.4
2022-08-07T09:50:42.632Z,33
2022-08-07T09:52:15.509Z,34
2022-08-07T09:52:42.617Z,34
2022-08-07T09:53:48.870Z,34.3
2022-08-07T09:54:42.616Z,34
2022-08-07T09:56:04.486Z,33.8
2022-08-07T09:56:42.641Z,33.7
2022-08-07T09:57:46.381Z,33.6
2022-08-07T09:58:42.650Z,33.7
2022-08-07T09:59:46.586Z,33.1
2022-08-07T10:00:42.698Z,32.3
2022-08-07T10:01:52.324Z,32.2
2022-08-07T10:02:53.704Z,31.8
2022-08-07T10:04:06.453Z,31.1
2022-08-07T10:04:46.139Z,31.2
2022-08-07T10:05:59.278Z,31
2022-08-07T10:06:42.636Z,31
2022-08-07T10:07:53.665Z,31
2022-08-07T10:08:42.624Z,31.5
2022-08-07T10:09:59.050Z,32.6
2022-08-07T10:12:01.104Z,32.9
2022-08-07T10:12:52.731Z,33.1
2022-08-07T10:14:00.144Z,33.6
2022-08-07T10:14:42.716Z,33.5
2022-08-07T10:15:44.281Z,33.1
2022-08-07T10:16:43.173Z,33.1
2022-08-07T10:18:00.271Z,32.7
2022-08-07T10:18:42.657Z,33.3
2022-08-07T10:19:42.638Z,32.2
2022-08-07T10:20:44.390Z,30.7
2022-08-07T10:22:14.756Z,30.7
2022-08-07T10:22:43.235Z,30.8
2022-08-07T10:24:05.544Z,30.4
2022-08-07T10:24:42.640Z,30.5
2022-08-07T10:25:43.542Z,31.2
2022-08-07T10:26:42.659Z,30.1
2022-08-07T10:27:46.507Z,30.1
2022-08-07T10:28:49.416Z,31.2
2022-08-07T10:29:45.642Z,30.3
2022-08-07T10:30:42.629Z,29.8
2022-08-07T10:31:45.184Z,30.2
2022-08-07T10:32:52.748Z,31.2
2022-08-07T10:34:05.741Z,30.3
2022-08-07T10:34:42.637Z,30.3
2022-08-07T10:35:55.229Z,30.1
2022-08-07T10:36:42.626Z,30.3
2022-08-07T10:38:00.948Z,29.9
2022-08-07T10:38:49.533Z,29.8
2022-08-07T10:40:02.838Z,29.5
2022-08-07T10:40:42.654Z,30.2
2022-08-07T10:41:51.537Z,30.6
2022-08-07T10:42:42.630Z,29.9
2022-08-07T10:43:42.656Z,29.5
2022-08-07T10:44:45.331Z,29.4
2022-08-07T10:45:44.964Z,29.6
2022-08-07T10:46:42.639Z,29.5
2022-08-07T10:47:53.906Z,30.4
2022-08-07T10:48:44.092Z,30.8
2022-08-07T10:49:45.289Z,30.4
2022-08-07T10:50:49.914Z,30.5
2022-08-07T10:52:01.590Z,31
2022-08-07T10:52:42.788Z,31.1
2022-08-07T10:53:44.709Z,30.7
2022-08-07T10:54:55.227Z,30.5
2022-08-07T10:55:42.661Z,30.9
2022-08-07T10:56:42.652Z,30.5
2022-08-07T10:57:42.651Z,29.5
2022-08-07T10:58:42.644Z,29.9
2022-08-07T10:59:47.463Z,29.6
2022-08-07T11:00:50.193Z,29.8
2022-08-07T11:01:51.597Z,29.4
2022-08-07T11:02:42.709Z,29.1
2022-08-07T11:03:52.491Z,29
2022-08-07T11:04:42.649Z,29.7
2022-08-07T11:05:50.410Z,29
2022-08-07T11:06:42.677Z,29.4
2022-08-07T11:08:00.530Z,28.9
2022-08-07T11:08:42.655Z,30.6
2022-08-07T11:10:09.158Z,30.7
2022-08-07T11:10:42.651Z,29.2
2022-08-07T11:11:42.756Z,29
2022-08-07T11:12:43.315Z,28.6
2022-08-07T11:14:45.253Z,28.6
2022-08-07T11:15:00.288Z,28.4
2022-08-07T11:15:42.646Z,28.6
2022-08-07T11:16:42.660Z,28.8
2022-08-07T11:17:45.760Z,28.6
2022-08-07T11:18:42.669Z,28.9
2022-08-07T11:19:42.671Z,28.9
2022-08-07T11:20:42.760Z,28.9
2022-08-07T11:21:43.122Z,28.6
2022-08-07T11:22:46.259Z,29.2
2022-08-07T11:23:42.663Z,29.2
2022-08-07T11:24:45.368Z,28.7
2022-08-07T11:25:49.916Z,28.7
2022-08-07T11:26:48.065Z,28.6
2022-08-07T11:28:01.537Z,27.8
2022-08-07T11:28:42.670Z,27.9
2022-08-07T11:29:48.350Z,28.4
2022-08-07T11:30:42.696Z,29.1
2022-08-07T11:31:42.664Z,27.7
2022-08-07T11:32:42.652Z,27.3
2022-08-07T11:33:59.212Z,27.8
2022-08-07T11:34:42.700Z,28.7
2022-08-07T11:35:59.560Z,28.8
2022-08-07T11:36:42.673Z,29.4
2022-08-07T11:38:09.906Z,28.4
2022-08-07T11:38:42.700Z,29.2
2022-08-07T11:40:00.771Z,28.8
2022-08-07T11:40:42.669Z,29.1
2022-08-07T11:42:01.613Z,29.3
2022-08-07T11:42:42.669Z,29.7
2022-08-07T11:44:10.931Z,29.2
2022-08-07T11:44:52.683Z,28.5
2022-08-07T11:45:53.461Z,28.7
2022-08-07T11:46:42.677Z,30.1
2022-08-07T11:47:56.717Z,29.8
2022-08-07T11:48:54.010Z,29.3
2022-08-07T11:50:25.304Z,27.6
2022-08-07T11:50:44.750Z,27.5
2022-08-07T11:51:46.579Z,26.7
2022-08-07T11:52:42.677Z,27.7
2022-08-07T11:53:43.347Z,27.9
2022-08-07T11:54:54.773Z,27.3
2022-08-07T11:56:25.101Z,27.4
2022-08-07T11:56:42.677Z,28.7
2022-08-07T11:58:00.373Z,28.7
2022-08-07T11:58:42.665Z,28.4
2022-08-07T12:00:10.990Z,27.4
2022-08-07T12:00:42.664Z,28.1
2022-08-07T12:01:59.910Z,28.1
2022-08-07T12:02:52.725Z,28.3
2022-08-07T12:03:46.034Z,27.8
2022-08-07T12:04:42.682Z,27.9
2022-08-07T12:05:48.818Z,28
2022-08-07T12:06:50.866Z,28.1
2022-08-07T12:07:42.906Z,27.6
2022-08-07T12:08:42.712Z,28
2022-08-07T12:09:42.682Z,27.8
2022-08-07T12:10:42.713Z,27.7
2022-08-07T12:11:43.193Z,28
2022-08-07T12:12:42.668Z,27.7
2022-08-07T12:13:47.631Z,27.8
2022-08-07T12:14:42.678Z,27.7
2022-08-07T12:16:05.619Z,28
2022-08-07T12:16:42.731Z,28.2
2022-08-07T12:17:55.973Z,28.8
2022-08-07T12:18:45.415Z,28.6
2022-08-07T12:20:02.808Z,28.7
2022-08-07T12:20:42.682Z,28.3
2022-08-07T12:22:35.683Z,28.3
2022-08-07T12:22:56.381Z,28.2
2022-08-07T12:24:06.705Z,28
2022-08-07T12:24:42.703Z,28.5
2022-08-07T12:26:06.231Z,28
2022-08-07T12:26:46.859Z,28.7
2022-08-07T12:28:09.768Z,28.4
2022-08-07T12:28:45.084Z,28.5
2022-08-07T12:29:42.701Z,28
2022-08-07T12:30:46.945Z,29.1
2022-08-07T12:31:52.985Z,28.8
2022-08-07T12:32:42.668Z,28.8
2022-08-07T12:33:56.549Z,28.7
2022-08-07T12:34:49.201Z,28
2022-08-07T12:35:42.677Z,28.3
2022-08-07T12:36:42.708Z,28.5
2022-08-07T12:38:10.034Z,28.6
2022-08-07T12:38:47.237Z,28.5
2022-08-07T12:39:51.073Z,28.6
2022-08-07T12:40:47.696Z,28.3
2022-08-07T12:41:51.522Z,28.4
2022-08-07T12:42:55.201Z,27.9
2022-08-07T12:44:04.107Z,27.5
2022-08-07T12:44:43.046Z,27.2
2022-08-07T12:45:42.700Z,26.8
2022-08-07T12:46:42.695Z,26.7
2022-08-07T12:47:42.680Z,26.9
2022-08-07T12:48:52.797Z,28
2022-08-07T12:50:49.443Z,28
2022-08-07T12:51:51.470Z,27.3
2022-08-07T12:52:46.298Z,27.7
2022-08-07T12:54:03.304Z,27.3
2022-08-07T12:54:38.922Z,27.2
2022-08-07T12:56:02.461Z,27.3
2022-08-07T12:56:42.694Z,27.4
2022-08-07T12:58:01.074Z,27.3
2022-08-07T12:58:43.892Z,28.1
2022-08-07T12:59:55.443Z,27.3
2022-08-07T13:00:50.223Z,28
2022-08-07T13:01:42.744Z,27.9
2022-08-07T13:02:42.691Z,28.2
2022-08-07T13:04:02.623Z,28.1
2022-08-07T13:04:48.987Z,27.8
2022-08-07T13:06:03.627Z,28.2
2022-08-07T13:07:00.127Z,28.4
2022-08-07T13:08:14.624Z,27.5
2022-08-07T13:08:42.695Z,27.4
2022-08-07T13:10:17.751Z,27.9
2022-08-07T13:10:51.806Z,28
2022-08-07T13:12:02.005Z,27.6
2022-08-07T13:12:42.714Z,27.8
2022-08-07T13:13:46.635Z,28.1
2022-08-07T13:14:46.778Z,28.5
2022-08-07T13:15:42.706Z,28.9
2022-08-07T13:16:42.692Z,28.3
2022-08-07T13:17:42.848Z,28
2022-08-07T13:18:42.698Z,28.3
2022-08-07T13:19:50.775Z,27.4
2022-08-07T13:20:42.691Z,27.5
2022-08-07T13:21:50.539Z,26.5
2022-08-07T13:22:42.696Z,26.4
2022-08-07T13:24:04.160Z,25.9
2022-08-07T13:24:52.260Z,26.5
2022-08-07T13:25:42.689Z,26.2
2022-08-07T13:26:46.052Z,25.9
2022-08-07T13:28:14.551Z,26.4
2022-08-07T13:28:42.698Z,26.5
2022-08-07T13:29:46.973Z,26.7
2022-08-07T13:30:43.863Z,26.3